sensor_id;sensor_type;location;lat;lon;timestamp;P1;durP1;ratioP1;P2;durP2;ratioP2
11970;SDS011;6045;42.682;23.294;2022-10-30T00:00:54;5.13;;;3.47;;
11970;SDS011;6045;42.682;23.294;2022-10-30T00:03:21;4.73;;;2.87;;
11970;SDS011;6045;42.682;23.294;2022-10-30T00:05:48;3.20;;;2.80;;
11970;SDS011;6045;42.682;23.294;2022-10-30T00:08:17;3.93;;;3.10;;
11970;SDS011;6045;42.682;23.294;2022-10-30T00:10:46;5.83;;;3.57;;
11970;SDS011;6045;42.682;23.294;2022-10-30T00:13:14;5.10;;;3.30;;
11970;SDS011;6045;42.682;23.294;2022-10-30T00:15:45;5.17;;;3.23;;
11970;SDS011;6045;42.682;23.294;2022-10-30T00:18:13;5.70;;;3.07;;
11970;SDS011;6045;42.682;23.294;2022-10-30T00:20:40;5.23;;;3.73;;
11970;SDS011;6045;42.682;23.294;2022-10-30T00:23:06;3.47;;;3.17;;
11970;SDS011;6045;42.682;23.294;2022-10-30T00:25:33;6.37;;;3.20;;
11970;SDS011;6045;42.682;23.294;2022-10-30T00:28:02;4.33;;;3.80;;
11970;SDS011;6045;42.682;23.294;2022-10-30T00:30:29;3.90;;;3.60;;
11970;SDS011;6045;42.682;23.294;2022-10-30T00:32:56;5.57;;;3.23;;
11970;SDS011;6045;42.682;23.294;2022-10-30T00:35:23;4.77;;;3.20;;
11970;SDS011;6045;42.682;23.294;2022-10-30T00:37:50;7.17;;;3.80;;
11970;SDS011;6045;42.682;23.294;2022-10-30T00:40:16;5.17;;;3.50;;
11970;SDS011;6045;42.682;23.294;2022-10-30T00:42:44;3.83;;;2.80;;
11970;SDS011;6045;42.682;23.294;2022-10-30T00:45:12;3.43;;;2.83;;
11970;SDS011;6045;42.682;23.294;2022-10-30T00:47:41;4.80;;;3.53;;
11970;SDS011;6045;42.682;23.294;2022-10-30T00:50:11;4.53;;;3.30;;
11970;SDS011;6045;42.682;23.294;2022-10-30T00:52:43;3.57;;;3.00;;
11970;SDS011;6045;42.682;23.294;2022-10-30T00:55:15;3.23;;;2.80;;
11970;SDS011;6045;42.682;23.294;2022-10-30T00:57:44;4.30;;;2.83;;
11970;SDS011;6045;42.682;23.294;2022-10-30T01:00:16;3.87;;;3.20;;
11970;SDS011;6045;42.682;23.294;2022-10-30T01:02:46;4.93;;;3.37;;
11970;SDS011;6045;42.682;23.294;2022-10-30T01:05:14;3.77;;;3.47;;
11970;SDS011;6045;42.682;23.294;2022-10-30T01:07:43;3.70;;;2.87;;
11970;SDS011;6045;42.682;23.294;2022-10-30T01:10:10;6.83;;;4.03;;
11970;SDS011;6045;42.682;23.294;2022-10-30T01:12:38;5.63;;;3.23;;
11970;SDS011;6045;42.682;23.294;2022-10-30T01:15:06;4.67;;;3.37;;
11970;SDS011;6045;42.682;23.294;2022-10-30T01:17:47;6.03;;;3.53;;
11970;SDS011;6045;42.682;23.294;2022-10-30T01:20:32;3.63;;;2.47;;
11970;SDS011;6045;42.682;23.294;2022-10-30T01:23:14;4.50;;;3.50;;
11970;SDS011;6045;42.682;23.294;2022-10-30T01:25:52;4.07;;;3.10;;
11970;SDS011;6045;42.682;23.294;2022-10-30T01:28:27;6.60;;;3.53;;
11970;SDS011;6045;42.682;23.294;2022-10-30T01:31:10;3.30;;;2.37;;
11970;SDS011;6045;42.682;23.294;2022-10-30T01:33:50;2.93;;;2.73;;
11970;SDS011;6045;42.682;23.294;2022-10-30T01:36:27;4.60;;;2.97;;
11970;SDS011;6045;42.682;23.294;2022-10-30T01:38:58;3.13;;;2.70;;
11970;SDS011;6045;42.682;23.294;2022-10-30T01:41:30;4.70;;;3.50;;
11970;SDS011;6045;42.682;23.294;2022-10-30T01:43:58;4.37;;;2.87;;
11970;SDS011;6045;42.682;23.294;2022-10-30T01:46:32;4.70;;;3.03;;
11970;SDS011;6045;42.682;23.294;2022-10-30T01:49:14;7.87;;;3.90;;
11970;SDS011;6045;42.682;23.294;2022-10-30T01:51:57;4.67;;;2.93;;
11970;SDS011;6045;42.682;23.294;2022-10-30T01:54:31;4.90;;;2.87;;
11970;SDS011;6045;42.682;23.294;2022-10-30T01:57:07;3.80;;;3.23;;
11970;SDS011;6045;42.682;23.294;2022-10-30T01:59:42;4.80;;;3.80;;
11970;SDS011;6045;42.682;23.294;2022-10-30T02:02:13;4.10;;;3.27;;
11970;SDS011;6045;42.682;23.294;2022-10-30T02:04:41;4.90;;;3.43;;
11970;SDS011;6045;42.682;23.294;2022-10-30T02:07:09;6.40;;;4.47;;
11970;SDS011;6045;42.682;23.294;2022-10-30T02:09:36;6.83;;;3.80;;
11970;SDS011;6045;42.682;23.294;2022-10-30T02:12:04;4.97;;;3.80;;
11970;SDS011;6045;42.682;23.294;2022-10-30T02:14:32;4.47;;;3.07;;
11970;SDS011;6045;42.682;23.294;2022-10-30T02:17:03;4.50;;;4.03;;
11970;SDS011;6045;42.682;23.294;2022-10-30T02:19:31;3.43;;;2.87;;
11970;SDS011;6045;42.682;23.294;2022-10-30T02:21:59;3.90;;;2.80;;
11970;SDS011;6045;42.682;23.294;2022-10-30T02:24:26;6.63;;;4.10;;
11970;SDS011;6045;42.682;23.294;2022-10-30T02:26:54;4.33;;;3.63;;
11970;SDS011;6045;42.682;23.294;2022-10-30T02:29:20;4.67;;;3.93;;
11970;SDS011;6045;42.682;23.294;2022-10-30T02:31:47;4.57;;;4.27;;
11970;SDS011;6045;42.682;23.294;2022-10-30T02:34:14;6.23;;;4.30;;
11970;SDS011;6045;42.682;23.294;2022-10-30T02:36:41;5.03;;;3.90;;
11970;SDS011;6045;42.682;23.294;2022-10-30T02:39:09;5.67;;;3.93;;
11970;SDS011;6045;42.682;23.294;2022-10-30T02:41:37;5.20;;;3.83;;
11970;SDS011;6045;42.682;23.294;2022-10-30T02:44:03;6.73;;;3.70;;
11970;SDS011;6045;42.682;23.294;2022-10-30T02:46:30;7.20;;;4.43;;
11970;SDS011;6045;42.682;23.294;2022-10-30T02:48:57;5.10;;;3.47;;
11970;SDS011;6045;42.682;23.294;2022-10-30T02:51:24;6.10;;;4.50;;
11970;SDS011;6045;42.682;23.294;2022-10-30T02:53:51;6.30;;;4.53;;
11970;SDS011;6045;42.682;23.294;2022-10-30T02:56:19;5.50;;;4.63;;
11970;SDS011;6045;42.682;23.294;2022-10-30T02:58:46;3.60;;;3.07;;
11970;SDS011;6045;42.682;23.294;2022-10-30T03:01:13;5.07;;;3.20;;
11970;SDS011;6045;42.682;23.294;2022-10-30T03:03:42;4.43;;;3.73;;
11970;SDS011;6045;42.682;23.294;2022-10-30T03:06:09;6.13;;;3.90;;
11970;SDS011;6045;42.682;23.294;2022-10-30T03:08:37;5.17;;;3.27;;
11970;SDS011;6045;42.682;23.294;2022-10-30T03:11:05;5.30;;;3.87;;
11970;SDS011;6045;42.682;23.294;2022-10-30T03:13:35;5.77;;;3.57;;
11970;SDS011;6045;42.682;23.294;2022-10-30T03:16:05;6.43;;;3.60;;
11970;SDS011;6045;42.682;23.294;2022-10-30T03:18:34;6.97;;;3.87;;
11970;SDS011;6045;42.682;23.294;2022-10-30T03:21:03;5.20;;;3.50;;
11970;SDS011;6045;42.682;23.294;2022-10-30T03:23:31;5.07;;;4.03;;
11970;SDS011;6045;42.682;23.294;2022-10-30T03:25:58;5.53;;;3.60;;
11970;SDS011;6045;42.682;23.294;2022-10-30T03:28:26;6.37;;;4.00;;
11970;SDS011;6045;42.682;23.294;2022-10-30T03:30:58;5.17;;;3.80;;
11970;SDS011;6045;42.682;23.294;2022-10-30T03:33:26;5.43;;;3.60;;
11970;SDS011;6045;42.682;23.294;2022-10-30T03:35:53;7.40;;;4.33;;
11970;SDS011;6045;42.682;23.294;2022-10-30T03:38:20;4.37;;;3.90;;
11970;SDS011;6045;42.682;23.294;2022-10-30T03:40:47;5.93;;;4.50;;
11970;SDS011;6045;42.682;23.294;2022-10-30T03:43:14;6.40;;;4.63;;
11970;SDS011;6045;42.682;23.294;2022-10-30T03:45:44;4.60;;;4.10;;
11970;SDS011;6045;42.682;23.294;2022-10-30T03:48:14;3.80;;;3.13;;
11970;SDS011;6045;42.682;23.294;2022-10-30T03:50:41;3.23;;;2.93;;
11970;SDS011;6045;42.682;23.294;2022-10-30T03:53:08;6.90;;;3.77;;
11970;SDS011;6045;42.682;23.294;2022-10-30T03:55:35;4.13;;;3.73;;
11970;SDS011;6045;42.682;23.294;2022-10-30T03:58:02;5.13;;;3.53;;
11970;SDS011;6045;42.682;23.294;2022-10-30T04:00:28;4.83;;;3.83;;
11970;SDS011;6045;42.682;23.294;2022-10-30T04:02:55;3.47;;;3.10;;
11970;SDS011;6045;42.682;23.294;2022-10-30T04:05:24;3.90;;;3.50;;
11970;SDS011;6045;42.682;23.294;2022-10-30T04:07:54;5.50;;;3.83;;
11970;SDS011;6045;42.682;23.294;2022-10-30T04:10:22;4.70;;;3.00;;
11970;SDS011;6045;42.682;23.294;2022-10-30T04:12:48;5.93;;;4.40;;
11970;SDS011;6045;42.682;23.294;2022-10-30T04:15:15;4.03;;;3.63;;
11970;SDS011;6045;42.682;23.294;2022-10-30T04:17:47;4.23;;;3.17;;
11970;SDS011;6045;42.682;23.294;2022-10-30T04:20:14;5.77;;;4.20;;
11970;SDS011;6045;42.682;23.294;2022-10-30T04:22:43;4.63;;;3.50;;
11970;SDS011;6045;42.682;23.294;2022-10-30T04:25:10;3.33;;;3.03;;
11970;SDS011;6045;42.682;23.294;2022-10-30T04:27:40;6.80;;;4.13;;
11970;SDS011;6045;42.682;23.294;2022-10-30T04:30:08;4.77;;;3.60;;
11970;SDS011;6045;42.682;23.294;2022-10-30T04:32:36;5.33;;;3.57;;
11970;SDS011;6045;42.682;23.294;2022-10-30T04:35:11;4.20;;;3.80;;
11970;SDS011;6045;42.682;23.294;2022-10-30T04:37:39;4.00;;;3.70;;
11970;SDS011;6045;42.682;23.294;2022-10-30T04:40:07;3.43;;;3.17;;
11970;SDS011;6045;42.682;23.294;2022-10-30T04:42:35;5.17;;;3.83;;
11970;SDS011;6045;42.682;23.294;2022-10-30T04:45:02;4.20;;;3.80;;
11970;SDS011;6045;42.682;23.294;2022-10-30T04:47:29;4.40;;;3.97;;
11970;SDS011;6045;42.682;23.294;2022-10-30T04:49:56;4.73;;;3.47;;
11970;SDS011;6045;42.682;23.294;2022-10-30T04:52:23;4.83;;;4.17;;
11970;SDS011;6045;42.682;23.294;2022-10-30T04:54:50;3.50;;;3.20;;
11970;SDS011;6045;42.682;23.294;2022-10-30T04:57:18;3.90;;;3.60;;
11970;SDS011;6045;42.682;23.294;2022-10-30T04:59:45;4.13;;;3.10;;
11970;SDS011;6045;42.682;23.294;2022-10-30T05:02:11;4.40;;;4.00;;
11970;SDS011;6045;42.682;23.294;2022-10-30T05:04:38;3.07;;;2.87;;
11970;SDS011;6045;42.682;23.294;2022-10-30T05:07:05;4.20;;;3.80;;
11970;SDS011;6045;42.682;23.294;2022-10-30T05:09:32;5.57;;;3.53;;
11970;SDS011;6045;42.682;23.294;2022-10-30T05:11:59;4.37;;;3.53;;
11970;SDS011;6045;42.682;23.294;2022-10-30T05:14:28;4.33;;;3.30;;
11970;SDS011;6045;42.682;23.294;2022-10-30T05:16:55;5.23;;;3.53;;
11970;SDS011;6045;42.682;23.294;2022-10-30T05:19:22;5.10;;;4.43;;
11970;SDS011;6045;42.682;23.294;2022-10-30T05:21:49;4.73;;;3.97;;
11970;SDS011;6045;42.682;23.294;2022-10-30T05:24:16;5.97;;;4.50;;
11970;SDS011;6045;42.682;23.294;2022-10-30T05:26:43;8.67;;;4.50;;
11970;SDS011;6045;42.682;23.294;2022-10-30T05:29:10;5.70;;;3.93;;
11970;SDS011;6045;42.682;23.294;2022-10-30T05:31:39;6.57;;;4.30;;
11970;SDS011;6045;42.682;23.294;2022-10-30T05:34:06;5.03;;;3.40;;
11970;SDS011;6045;42.682;23.294;2022-10-30T05:36:32;5.80;;;4.37;;
11970;SDS011;6045;42.682;23.294;2022-10-30T05:39:01;5.33;;;3.93;;
11970;SDS011;6045;42.682;23.294;2022-10-30T05:41:30;5.73;;;4.63;;
11970;SDS011;6045;42.682;23.294;2022-10-30T05:43:57;5.07;;;4.23;;
11970;SDS011;6045;42.682;23.294;2022-10-30T05:46:23;6.80;;;3.87;;
11970;SDS011;6045;42.682;23.294;2022-10-30T05:48:52;4.90;;;4.40;;
11970;SDS011;6045;42.682;23.294;2022-10-30T05:51:19;6.87;;;4.33;;
11970;SDS011;6045;42.682;23.294;2022-10-30T05:53:46;5.57;;;4.07;;
11970;SDS011;6045;42.682;23.294;2022-10-30T05:56:13;4.80;;;4.27;;
11970;SDS011;6045;42.682;23.294;2022-10-30T05:58:42;5.17;;;4.50;;
11970;SDS011;6045;42.682;23.294;2022-10-30T06:01:09;7.13;;;4.60;;
11970;SDS011;6045;42.682;23.294;2022-10-30T06:03:40;5.93;;;4.15;;
11970;SDS011;6045;42.682;23.294;2022-10-30T06:06:09;4.60;;;3.67;;
11970;SDS011;6045;42.682;23.294;2022-10-30T06:08:36;4.78;;;4.28;;
11970;SDS011;6045;42.682;23.294;2022-10-30T06:11:03;8.77;;;5.43;;
11970;SDS011;6045;42.682;23.294;2022-10-30T06:13:30;5.57;;;3.97;;
11970;SDS011;6045;42.682;23.294;2022-10-30T06:15:57;6.07;;;4.82;;
11970;SDS011;6045;42.682;23.294;2022-10-30T06:18:23;8.07;;;5.10;;
11970;SDS011;6045;42.682;23.294;2022-10-30T06:20:50;6.20;;;3.60;;
11970;SDS011;6045;42.682;23.294;2022-10-30T06:23:18;6.22;;;4.15;;
11970;SDS011;6045;42.682;23.294;2022-10-30T06:25:45;6.00;;;4.47;;
11970;SDS011;6045;42.682;23.294;2022-10-30T06:28:14;6.30;;;4.47;;
11970;SDS011;6045;42.682;23.294;2022-10-30T06:30:40;6.97;;;5.63;;
11970;SDS011;6045;42.682;23.294;2022-10-30T06:33:08;5.63;;;3.80;;
11970;SDS011;6045;42.682;23.294;2022-10-30T06:35:35;5.70;;;3.95;;
11970;SDS011;6045;42.682;23.294;2022-10-30T06:38:01;5.90;;;4.60;;
11970;SDS011;6045;42.682;23.294;2022-10-30T06:40:30;8.95;;;4.60;;
11970;SDS011;6045;42.682;23.294;2022-10-30T06:42:57;6.43;;;4.80;;
11970;SDS011;6045;42.682;23.294;2022-10-30T06:45:24;6.22;;;4.30;;
11970;SDS011;6045;42.682;23.294;2022-10-30T06:47:51;7.63;;;4.70;;
11970;SDS011;6045;42.682;23.294;2022-10-30T06:50:18;7.57;;;4.90;;
11970;SDS011;6045;42.682;23.294;2022-10-30T06:52:48;7.28;;;5.32;;
11970;SDS011;6045;42.682;23.294;2022-10-30T06:55:15;9.23;;;5.90;;
11970;SDS011;6045;42.682;23.294;2022-10-30T06:57:46;7.68;;;6.20;;
11970;SDS011;6045;42.682;23.294;2022-10-30T07:00:19;7.00;;;5.57;;
11970;SDS011;6045;42.682;23.294;2022-10-30T07:02:53;8.60;;;5.63;;
11970;SDS011;6045;42.682;23.294;2022-10-30T07:05:20;9.13;;;5.57;;
11970;SDS011;6045;42.682;23.294;2022-10-30T07:07:47;5.65;;;5.10;;
11970;SDS011;6045;42.682;23.294;2022-10-30T07:10:14;5.85;;;5.30;;
11970;SDS011;6045;42.682;23.294;2022-10-30T07:12:41;7.25;;;5.90;;
11970;SDS011;6045;42.682;23.294;2022-10-30T07:15:09;7.28;;;5.18;;
11970;SDS011;6045;42.682;23.294;2022-10-30T07:17:36;7.65;;;5.65;;
11970;SDS011;6045;42.682;23.294;2022-10-30T07:20:03;6.22;;;5.00;;
11970;SDS011;6045;42.682;23.294;2022-10-30T07:22:30;6.38;;;4.97;;
11970;SDS011;6045;42.682;23.294;2022-10-30T07:24:57;5.43;;;4.82;;
11970;SDS011;6045;42.682;23.294;2022-10-30T07:27:24;8.25;;;5.70;;
11970;SDS011;6045;42.682;23.294;2022-10-30T07:29:50;6.03;;;5.20;;
11970;SDS011;6045;42.682;23.294;2022-10-30T07:32:19;6.22;;;5.22;;
11970;SDS011;6045;42.682;23.294;2022-10-30T07:34:45;8.63;;;5.13;;
11970;SDS011;6045;42.682;23.294;2022-10-30T07:37:12;5.70;;;4.68;;
11970;SDS011;6045;42.682;23.294;2022-10-30T07:39:39;6.07;;;4.75;;
11970;SDS011;6045;42.682;23.294;2022-10-30T07:42:06;6.47;;;4.85;;
11970;SDS011;6045;42.682;23.294;2022-10-30T07:44:32;5.63;;;4.82;;
11970;SDS011;6045;42.682;23.294;2022-10-30T07:46:59;5.85;;;4.72;;
11970;SDS011;6045;42.682;23.294;2022-10-30T07:49:27;5.32;;;4.82;;
11970;SDS011;6045;42.682;23.294;2022-10-30T07:51:54;10.60;;;5.50;;
11970;SDS011;6045;42.682;23.294;2022-10-30T07:54:21;5.60;;;4.97;;
11970;SDS011;6045;42.682;23.294;2022-10-30T07:56:48;7.05;;;5.82;;
11970;SDS011;6045;42.682;23.294;2022-10-30T07:59:14;7.80;;;4.90;;
11970;SDS011;6045;42.682;23.294;2022-10-30T08:01:41;8.15;;;6.00;;
11970;SDS011;6045;42.682;23.294;2022-10-30T08:04:08;6.90;;;5.90;;
11970;SDS011;6045;42.682;23.294;2022-10-30T08:06:39;7.45;;;5.90;;
11970;SDS011;6045;42.682;23.294;2022-10-30T08:09:06;6.47;;;5.82;;
11970;SDS011;6045;42.682;23.294;2022-10-30T08:11:33;5.90;;;5.22;;
11970;SDS011;6045;42.682;23.294;2022-10-30T08:14:00;7.60;;;6.15;;
11970;SDS011;6045;42.682;23.294;2022-10-30T08:16:27;7.10;;;5.88;;
11970;SDS011;6045;42.682;23.294;2022-10-30T08:18:54;7.13;;;5.65;;
11970;SDS011;6045;42.682;23.294;2022-10-30T08:21:21;6.97;;;5.18;;
11970;SDS011;6045;42.682;23.294;2022-10-30T08:23:49;7.30;;;5.50;;
11970;SDS011;6045;42.682;23.294;2022-10-30T08:26:16;33.20;;;20.70;;
11970;SDS011;6045;42.682;23.294;2022-10-30T08:28:43;26.10;;;16.25;;
11970;SDS011;6045;42.682;23.294;2022-10-30T08:31:10;10.90;;;8.50;;
11970;SDS011;6045;42.682;23.294;2022-10-30T08:33:37;7.68;;;6.35;;
11970;SDS011;6045;42.682;23.294;2022-10-30T08:36:04;8.40;;;6.30;;
11970;SDS011;6045;42.682;23.294;2022-10-30T08:38:31;7.80;;;5.72;;
11970;SDS011;6045;42.682;23.294;2022-10-30T08:41:00;7.63;;;5.55;;
11970;SDS011;6045;42.682;23.294;2022-10-30T08:43:27;7.28;;;5.38;;
11970;SDS011;6045;42.682;23.294;2022-10-30T08:45:56;6.97;;;5.40;;
11970;SDS011;6045;42.682;23.294;2022-10-30T08:48:23;7.47;;;5.68;;
11970;SDS011;6045;42.682;23.294;2022-10-30T08:50:50;6.03;;;5.35;;
11970;SDS011;6045;42.682;23.294;2022-10-30T08:53:17;8.43;;;5.18;;
11970;SDS011;6045;42.682;23.294;2022-10-30T08:55:44;6.93;;;4.90;;
11970;SDS011;6045;42.682;23.294;2022-10-30T08:58:12;6.90;;;5.55;;
11970;SDS011;6045;42.682;23.294;2022-10-30T09:00:39;4.95;;;4.30;;
11970;SDS011;6045;42.682;23.294;2022-10-30T09:03:06;7.82;;;4.93;;
11970;SDS011;6045;42.682;23.294;2022-10-30T09:05:33;7.18;;;4.90;;
11970;SDS011;6045;42.682;23.294;2022-10-30T09:08:01;6.15;;;4.40;;
11970;SDS011;6045;42.682;23.294;2022-10-30T09:10:28;6.03;;;4.60;;
11970;SDS011;6045;42.682;23.294;2022-10-30T09:12:56;7.60;;;5.30;;
11970;SDS011;6045;42.682;23.294;2022-10-30T09:15:25;5.88;;;4.88;;
11970;SDS011;6045;42.682;23.294;2022-10-30T09:17:55;6.97;;;5.22;;
11970;SDS011;6045;42.682;23.294;2022-10-30T09:20:23;6.32;;;5.18;;
11970;SDS011;6045;42.682;23.294;2022-10-30T09:22:50;6.82;;;5.47;;
11970;SDS011;6045;42.682;23.294;2022-10-30T09:25:16;8.52;;;6.15;;
11970;SDS011;6045;42.682;23.294;2022-10-30T09:27:43;6.97;;;5.75;;
11970;SDS011;6045;42.682;23.294;2022-10-30T09:30:10;6.88;;;5.35;;
11970;SDS011;6045;42.682;23.294;2022-10-30T09:32:39;6.45;;;4.38;;
11970;SDS011;6045;42.682;23.294;2022-10-30T09:35:06;7.38;;;5.18;;
11970;SDS011;6045;42.682;23.294;2022-10-30T09:37:34;6.45;;;5.10;;
11970;SDS011;6045;42.682;23.294;2022-10-30T09:40:01;7.43;;;5.53;;
11970;SDS011;6045;42.682;23.294;2022-10-30T09:42:39;22.05;;;14.55;;
11970;SDS011;6045;42.682;23.294;2022-10-30T09:45:18;7.47;;;5.20;;
11970;SDS011;6045;42.682;23.294;2022-10-30T09:47:55;7.03;;;5.05;;
11970;SDS011;6045;42.682;23.294;2022-10-30T09:50:32;4.68;;;4.00;;
11970;SDS011;6045;42.682;23.294;2022-10-30T09:53:06;6.03;;;4.80;;
11970;SDS011;6045;42.682;23.294;2022-10-30T09:55:40;8.90;;;5.05;;
11970;SDS011;6045;42.682;23.294;2022-10-30T09:58:17;7.10;;;5.07;;
11970;SDS011;6045;42.682;23.294;2022-10-30T10:00:52;4.80;;;4.30;;
11970;SDS011;6045;42.682;23.294;2022-10-30T10:03:32;5.97;;;4.68;;
11970;SDS011;6045;42.682;23.294;2022-10-30T10:06:14;6.95;;;4.65;;
11970;SDS011;6045;42.682;23.294;2022-10-30T10:08:44;5.57;;;4.30;;
11970;SDS011;6045;42.682;23.294;2022-10-30T10:11:15;5.20;;;4.40;;
11970;SDS011;6045;42.682;23.294;2022-10-30T10:13:47;4.40;;;3.92;;
11970;SDS011;6045;42.682;23.294;2022-10-30T10:16:17;3.75;;;3.42;;
11970;SDS011;6045;42.682;23.294;2022-10-30T10:18:47;4.82;;;3.80;;
11970;SDS011;6045;42.682;23.294;2022-10-30T10:21:23;4.90;;;4.28;;
11970;SDS011;6045;42.682;23.294;2022-10-30T10:23:54;4.93;;;3.60;;
11970;SDS011;6045;42.682;23.294;2022-10-30T10:26:27;5.22;;;3.50;;
11970;SDS011;6045;42.682;23.294;2022-10-30T10:32:06;4.53;;;3.10;;
11970;SDS011;6045;42.682;23.294;2022-10-30T10:35:00;3.90;;;2.55;;
11970;SDS011;6045;42.682;23.294;2022-10-30T10:37:45;3.47;;;2.60;;
11970;SDS011;6045;42.682;23.294;2022-10-30T10:40:21;9.65;;;7.80;;
11970;SDS011;6045;42.682;23.294;2022-10-30T10:43:07;14.65;;;10.20;;
11970;SDS011;6045;42.682;23.294;2022-10-30T10:45:43;3.22;;;2.45;;
11970;SDS011;6045;42.682;23.294;2022-10-30T10:51:12;2.53;;;2.22;;
11970;SDS011;6045;42.682;23.294;2022-10-30T10:53:43;5.47;;;1.88;;
11970;SDS011;6045;42.682;23.294;2022-10-30T10:56:12;3.03;;;2.13;;
11970;SDS011;6045;42.682;23.294;2022-10-30T10:58:42;2.67;;;2.20;;
11970;SDS011;6045;42.682;23.294;2022-10-30T11:01:16;2.22;;;1.92;;
11970;SDS011;6045;42.682;23.294;2022-10-30T11:03:48;3.50;;;2.20;;
11970;SDS011;6045;42.682;23.294;2022-10-30T11:06:23;3.03;;;2.40;;
11970;SDS011;6045;42.682;23.294;2022-10-30T11:08:53;3.13;;;2.33;;
11970;SDS011;6045;42.682;23.294;2022-10-30T11:11:28;3.03;;;1.85;;
11970;SDS011;6045;42.682;23.294;2022-10-30T11:13:54;5.93;;;2.33;;
11970;SDS011;6045;42.682;23.294;2022-10-30T11:16:24;2.35;;;1.75;;
11970;SDS011;6045;42.682;23.294;2022-10-30T11:18:55;2.63;;;2.05;;
11970;SDS011;6045;42.682;23.294;2022-10-30T11:21:26;2.88;;;1.92;;
11970;SDS011;6045;42.682;23.294;2022-10-30T11:23:57;1.90;;;1.77;;
11970;SDS011;6045;42.682;23.294;2022-10-30T11:26:30;3.72;;;2.55;;
11970;SDS011;6045;42.682;23.294;2022-10-30T11:29:03;9.05;;;5.75;;
11970;SDS011;6045;42.682;23.294;2022-10-30T11:31:35;3.97;;;3.60;;
11970;SDS011;6045;42.682;23.294;2022-10-30T11:34:19;2.90;;;2.08;;
11970;SDS011;6045;42.682;23.294;2022-10-30T11:36:52;3.28;;;2.13;;
11970;SDS011;6045;42.682;23.294;2022-10-30T11:39:20;2.08;;;1.98;;
11970;SDS011;6045;42.682;23.294;2022-10-30T11:41:48;2.33;;;1.98;;
11970;SDS011;6045;42.682;23.294;2022-10-30T11:44:21;2.38;;;2.17;;
11970;SDS011;6045;42.682;23.294;2022-10-30T11:46:50;4.75;;;2.35;;
11970;SDS011;6045;42.682;23.294;2022-10-30T11:49:25;2.35;;;2.10;;
11970;SDS011;6045;42.682;23.294;2022-10-30T11:51:58;2.47;;;2.00;;
11970;SDS011;6045;42.682;23.294;2022-10-30T11:54:25;2.42;;;2.08;;
11970;SDS011;6045;42.682;23.294;2022-10-30T11:56:53;2.25;;;2.05;;
11970;SDS011;6045;42.682;23.294;2022-10-30T11:59:21;4.28;;;2.25;;
11970;SDS011;6045;42.682;23.294;2022-10-30T12:01:59;2.35;;;1.80;;
11970;SDS011;6045;42.682;23.294;2022-10-30T12:04:28;2.45;;;1.80;;
11970;SDS011;6045;42.682;23.294;2022-10-30T12:07:07;2.88;;;2.22;;
11970;SDS011;6045;42.682;23.294;2022-10-30T12:09:43;2.53;;;1.75;;
11970;SDS011;6045;42.682;23.294;2022-10-30T12:12:11;2.30;;;1.80;;
11970;SDS011;6045;42.682;23.294;2022-10-30T12:14:45;2.50;;;2.03;;
11970;SDS011;6045;42.682;23.294;2022-10-30T12:17:13;2.33;;;1.80;;
11970;SDS011;6045;42.682;23.294;2022-10-30T12:19:44;2.25;;;1.50;;
11970;SDS011;6045;42.682;23.294;2022-10-30T12:22:23;2.45;;;1.88;;
11970;SDS011;6045;42.682;23.294;2022-10-30T12:24:53;1.63;;;1.50;;
11970;SDS011;6045;42.682;23.294;2022-10-30T12:27:22;3.22;;;1.67;;
11970;SDS011;6045;42.682;23.294;2022-10-30T12:29:55;2.33;;;1.85;;
11970;SDS011;6045;42.682;23.294;2022-10-30T12:32:31;1.83;;;1.63;;
11970;SDS011;6045;42.682;23.294;2022-10-30T12:35:05;1.45;;;1.35;;
11970;SDS011;6045;42.682;23.294;2022-10-30T12:37:43;2.13;;;1.50;;
11970;SDS011;6045;42.682;23.294;2022-10-30T12:40:11;1.60;;;1.50;;
11970;SDS011;6045;42.682;23.294;2022-10-30T12:42:48;1.90;;;1.58;;
11970;SDS011;6045;42.682;23.294;2022-10-30T12:45:25;1.55;;;1.30;;
11970;SDS011;6045;42.682;23.294;2022-10-30T12:47:57;1.60;;;1.25;;
11970;SDS011;6045;42.682;23.294;2022-10-30T12:50:28;1.55;;;1.45;;
11970;SDS011;6045;42.682;23.294;2022-10-30T12:53:06;2.33;;;1.50;;
11970;SDS011;6045;42.682;23.294;2022-10-30T12:55:44;0.95;;;0.88;;
11970;SDS011;6045;42.682;23.294;2022-10-30T12:58:17;1.40;;;1.30;;
11970;SDS011;6045;42.682;23.294;2022-10-30T13:00:53;1.50;;;1.40;;
11970;SDS011;6045;42.682;23.294;2022-10-30T13:03:28;2.63;;;1.40;;
11970;SDS011;6045;42.682;23.294;2022-10-30T13:05:59;1.60;;;1.02;;
11970;SDS011;6045;42.682;23.294;2022-10-30T13:08:33;2.15;;;1.77;;
11970;SDS011;6045;42.682;23.294;2022-10-30T13:11:06;1.20;;;1.10;;
11970;SDS011;6045;42.682;23.294;2022-10-30T13:13:40;0.98;;;0.88;;
11970;SDS011;6045;42.682;23.294;2022-10-30T13:16:11;1.20;;;1.00;;
11970;SDS011;6045;42.682;23.294;2022-10-30T13:18:41;0.95;;;0.90;;
11970;SDS011;6045;42.682;23.294;2022-10-30T13:21:14;1.13;;;0.90;;
11970;SDS011;6045;42.682;23.294;2022-10-30T13:23:50;2.22;;;1.20;;
11970;SDS011;6045;42.682;23.294;2022-10-30T13:26:22;1.08;;;0.95;;
11970;SDS011;6045;42.682;23.294;2022-10-30T13:28:58;0.90;;;0.82;;
11970;SDS011;6045;42.682;23.294;2022-10-30T13:31:35;2.80;;;1.13;;
11970;SDS011;6045;42.682;23.294;2022-10-30T13:34:13;1.58;;;1.10;;
11970;SDS011;6045;42.682;23.294;2022-10-30T13:36:53;1.80;;;1.27;;
11970;SDS011;6045;42.682;23.294;2022-10-30T13:39:29;1.92;;;0.98;;
11970;SDS011;6045;42.682;23.294;2022-10-30T13:42:07;1.00;;;0.90;;
11970;SDS011;6045;42.682;23.294;2022-10-30T13:44:49;2.00;;;1.00;;
11970;SDS011;6045;42.682;23.294;2022-10-30T13:47:29;1.42;;;1.00;;
11970;SDS011;6045;42.682;23.294;2022-10-30T13:50:09;1.52;;;1.27;;
11970;SDS011;6045;42.682;23.294;2022-10-30T13:52:47;1.38;;;1.27;;
11970;SDS011;6045;42.682;23.294;2022-10-30T13:55:20;1.30;;;0.88;;
11970;SDS011;6045;42.682;23.294;2022-10-30T13:57:50;1.70;;;1.30;;
11970;SDS011;6045;42.682;23.294;2022-10-30T14:00:21;1.60;;;1.38;;
11970;SDS011;6045;42.682;23.294;2022-10-30T14:03:02;1.80;;;1.23;;
11970;SDS011;6045;42.682;23.294;2022-10-30T14:05:47;1.83;;;1.30;;
11970;SDS011;6045;42.682;23.294;2022-10-30T14:08:20;2.00;;;1.17;;
11970;SDS011;6045;42.682;23.294;2022-10-30T14:10:59;1.55;;;1.40;;
11970;SDS011;6045;42.682;23.294;2022-10-30T14:13:42;1.55;;;1.45;;
11970;SDS011;6045;42.682;23.294;2022-10-30T14:19:00;1.48;;;1.20;;
11970;SDS011;6045;42.682;23.294;2022-10-30T14:21:29;2.35;;;1.10;;
11970;SDS011;6045;42.682;23.294;2022-10-30T14:24:02;1.00;;;0.90;;
11970;SDS011;6045;42.682;23.294;2022-10-30T14:26:35;1.83;;;1.35;;
11970;SDS011;6045;42.682;23.294;2022-10-30T14:35:22;3.30;;;1.02;;
11970;SDS011;6045;42.682;23.294;2022-10-30T14:38:24;1.30;;;1.20;;
11970;SDS011;6045;42.682;23.294;2022-10-30T14:41:01;4.25;;;1.83;;
11970;SDS011;6045;42.682;23.294;2022-10-30T14:43:41;2.45;;;1.50;;
11970;SDS011;6045;42.682;23.294;2022-10-30T14:46:15;1.30;;;1.10;;
11970;SDS011;6045;42.682;23.294;2022-10-30T14:48:51;2.03;;;1.40;;
11970;SDS011;6045;42.682;23.294;2022-10-30T14:51:27;2.70;;;1.42;;
11970;SDS011;6045;42.682;23.294;2022-10-30T14:54:04;2.45;;;1.58;;
11970;SDS011;6045;42.682;23.294;2022-10-30T14:56:44;3.10;;;1.65;;
11970;SDS011;6045;42.682;23.294;2022-10-30T14:59:23;1.98;;;1.40;;
11970;SDS011;6045;42.682;23.294;2022-10-30T15:04:57;4.07;;;1.27;;
11970;SDS011;6045;42.682;23.294;2022-10-30T15:07:45;2.42;;;1.42;;
11970;SDS011;6045;42.682;23.294;2022-10-30T15:10:18;2.08;;;1.73;;
11970;SDS011;6045;42.682;23.294;2022-10-30T15:12:54;1.35;;;1.15;;
11970;SDS011;6045;42.682;23.294;2022-10-30T15:15:33;1.63;;;1.30;;
11970;SDS011;6045;42.682;23.294;2022-10-30T15:18:01;1.63;;;1.25;;
11970;SDS011;6045;42.682;23.294;2022-10-30T15:20:32;1.88;;;1.38;;
11970;SDS011;6045;42.682;23.294;2022-10-30T15:23:03;2.25;;;1.20;;
11970;SDS011;6045;42.682;23.294;2022-10-30T15:25:36;1.45;;;1.35;;